Time;durP1;ratioP1;P1;durP2;ratioP2;P2;SDS_P1;SDS_P2;PMS_P1;PMS_P2;Temp;Humidity;BMP_temperature;BMP_pressure;BME280_temperature;BME280_humidity;BME280_pressure;Samples;Min_cycle;Max_cycle;Signal;HPM_P1;HPM_P2
2023/12/24 00:00:07;;;;;;;78.93;44.38;;;16.10;57.40;;;;;;4970269;28;20565;-64
2023/12/24 00:02:32;;;;;;;73.60;39.88;;;16.10;57.30;;;;;;4972613;28;20039;-63
2023/12/24 00:04:58;;;;;;;68.60;39.80;;;16.10;57.40;;;;;;4973243;28;20038;-62
2023/12/24 00:07:23;;;;;;;73.50;39.83;;;16.10;57.30;;;;;;4969350;28;20569;-62
2023/12/24 00:09:49;;;;;;;68.97;38.78;;;16.10;57.30;;;;;;4973311;28;20035;-61
2023/12/24 00:12:14;;;;;;;73.15;40.58;;;16.10;57.40;;;;;;4969336;28;20034;-62
2023/12/24 00:14:40;;;;;;;67.15;37.10;;;16.10;57.40;;;;;;4969815;28;20043;-62
2023/12/24 00:17:05;;;;;;;67.22;37.20;;;16.10;57.30;;;;;;4966271;28;20038;-61
2023/12/24 00:19:30;;;;;;;63.08;35.53;;;16.10;57.30;;;;;;4969892;28;20490;-61
2023/12/24 00:21:56;;;;;;;61.17;33.55;;;16.10;57.40;;;;;;4973188;28;20106;-63
2023/12/24 00:24:22;;;;;;;58.60;33.47;;;16.10;57.40;;;;;;4969847;28;20035;-61
2023/12/24 00:26:47;;;;;;;55.92;31.77;;;16.10;57.50;;;;;;4969715;28;20034;-61
2023/12/24 00:29:13;;;;;;;58.55;33.05;;;16.10;57.60;;;;;;4969769;28;20030;-63
2023/12/24 00:31:38;;;;;;;55.70;32.15;;;16.10;57.40;;;;;;4973254;28;20038;-63
2023/12/24 00:34:03;;;;;;;59.78;32.60;;;16.10;57.50;;;;;;4969147;28;20117;-63
2023/12/24 00:36:29;;;;;;;54.58;31.33;;;16.10;57.40;;;;;;4974408;28;20030;-64
2023/12/24 00:38:54;;;;;;;50.75;28.90;;;16.10;57.40;;;;;;4970114;28;20116;-62
2023/12/24 00:41:20;;;;;;;57.55;31.02;;;16.10;57.40;;;;;;4973278;28;20118;-62
2023/12/24 00:43:45;;;;;;;50.40;28.25;;;16.10;57.40;;;;;;4972447;28;20038;-62
2023/12/24 00:46:15;;;;;;;47.88;26.70;;;16.00;57.30;;;;;;4973138;28;20038;-61
2023/12/24 00:48:40;;;;;;;48.60;27.23;;;16.00;57.40;;;;;;4971208;28;20031;-62
2023/12/24 00:51:06;;;;;;;46.95;25.60;;;16.00;57.40;;;;;;4974026;28;20131;-61
2023/12/24 00:53:31;;;;;;;43.22;24.77;;;16.10;57.50;;;;;;4968759;28;20055;-63
2023/12/24 00:55:58;;;;;;;43.72;25.20;;;16.10;57.50;;;;;;4969089;28;20078;-63
2023/12/24 00:58:26;;;;;;;44.85;25.90;;;16.00;57.40;;;;;;4972942;28;20035;-60
2023/12/24 01:00:51;;;;;;;43.65;25.58;;;16.00;57.50;;;;;;4969598;28;20027;-64
2023/12/24 01:03:16;;;;;;;41.15;23.85;;;16.00;57.40;;;;;;4968792;28;20041;-63
2023/12/24 01:05:42;;;;;;;40.20;21.90;;;16.00;57.50;;;;;;4969749;28;20183;-64
2023/12/24 01:08:07;;;;;;;37.53;22.63;;;16.00;57.40;;;;;;4969094;28;20039;-64
2023/12/24 01:10:33;;;;;;;35.25;21.65;;;16.00;57.50;;;;;;4970762;28;20142;-61
2023/12/24 01:12:58;;;;;;;33.92;20.70;;;16.00;57.50;;;;;;4970102;28;20038;-62
2023/12/24 01:15:24;;;;;;;34.97;20.52;;;16.00;57.50;;;;;;4958415;28;20035;-62
2023/12/24 01:17:49;;;;;;;39.53;21.05;;;16.00;57.40;;;;;;4971582;28;20524;-63
2023/12/24 01:20:16;;;;;;;36.90;18.90;;;16.00;57.40;;;;;;4980972;28;20153;-63
2023/12/24 01:22:42;;;;;;;36.35;20.15;;;16.00;57.50;;;;;;4974949;28;20034;-63
2023/12/24 01:25:08;;;;;;;31.75;17.67;;;16.00;57.50;;;;;;4970581;28;20035;-64
2023/12/24 01:27:35;;;;;;;29.98;17.55;;;16.00;57.40;;;;;;4968289;28;20035;-63
2023/12/24 01:30:00;;;;;;;32.50;19.33;;;16.00;57.40;;;;;;4968333;28;20089;-63
2023/12/24 01:32:26;;;;;;;32.30;16.65;;;16.00;57.50;;;;;;4968367;28;20121;-63
2023/12/24 01:34:51;;;;;;;29.48;18.15;;;16.00;57.50;;;;;;4968769;28;20031;-63
2023/12/24 01:37:16;;;;;;;29.77;16.13;;;16.00;57.50;;;;;;4967720;28;20383;-63
2023/12/24 01:39:42;;;;;;;28.58;17.02;;;16.00;57.40;;;;;;4968180;28;20070;-63
2023/12/24 01:42:08;;;;;;;28.95;16.33;;;16.00;57.40;;;;;;4967440;28;20031;-63
2023/12/24 01:44:33;;;;;;;26.83;16.33;;;16.00;57.40;;;;;;4969155;28;20352;-63
2023/12/24 01:46:59;;;;;;;23.73;15.00;;;16.00;57.50;;;;;;4974658;28;20166;-64
2023/12/24 01:49:25;;;;;;;24.65;14.18;;;16.00;57.60;;;;;;4967920;28;20031;-62
2023/12/24 01:51:52;;;;;;;26.02;14.20;;;16.00;57.40;;;;;;4968269;28;20509;-62
2023/12/24 01:54:17;;;;;;;23.15;14.35;;;16.00;57.50;;;;;;4967911;28;20062;-63
2023/12/24 01:56:43;;;;;;;25.95;14.40;;;16.00;57.50;;;;;;4967787;28;20490;-63
2023/12/24 01:59:09;;;;;;;22.45;13.70;;;16.00;57.50;;;;;;4970220;28;20038;-62
2023/12/24 02:01:35;;;;;;;24.38;15.23;;;15.90;57.40;;;;;;4972199;28;20054;-64
2023/12/24 02:04:01;;;;;;;21.35;12.95;;;16.00;57.50;;;;;;4964239;28;20382;-63
2023/12/24 02:06:27;;;;;;;20.80;12.93;;;16.00;57.60;;;;;;4964786;28;20035;-61
2023/12/24 02:08:53;;;;;;;22.60;13.43;;;16.00;57.40;;;;;;4968769;28;20027;-62
2023/12/24 02:11:20;;;;;;;20.23;12.55;;;15.90;57.50;;;;;;4954122;28;20465;-63
2023/12/24 02:13:46;;;;;;;20.67;12.50;;;16.00;57.50;;;;;;4964474;28;20034;-64
2023/12/24 02:16:18;;;;;;;17.63;11.35;;;16.00;57.50;;;;;;4967230;28;20043;-63
2023/12/24 02:18:43;;;;;;;20.50;11.57;;;15.90;57.40;;;;;;4975027;28;20046;-64
2023/12/24 02:21:09;;;;;;;21.23;11.10;;;16.00;57.50;;;;;;4968387;28;20094;-62
2023/12/24 02:23:34;;;;;;;15.88;10.73;;;15.90;57.50;;;;;;4968409;28;20191;-63
2023/12/24 02:26:40;;;;;;;17.15;10.60;;;15.90;57.40;;;;;;4968822;28;20050;-64
2023/12/24 02:29:13;;;;;;;16.38;10.07;;;15.90;57.40;;;;;;4967598;28;20070;-64
2023/12/24 02:31:42;;;;;;;15.70;10.07;;;15.90;57.50;;;;;;4972499;28;20035;-64
2023/12/24 02:34:10;;;;;;;17.55;10.55;;;16.00;57.50;;;;;;4968739;28;20061;-63
2023/12/24 02:36:37;;;;;;;17.02;9.77;;;15.90;57.50;;;;;;4971596;28;20030;-63
2023/12/24 02:39:03;;;;;;;16.85;10.18;;;15.90;57.50;;;;;;4977745;28;20050;-65
2023/12/24 02:41:28;;;;;;;14.75;9.75;;;16.00;57.50;;;;;;4971748;28;20054;-65
2023/12/24 02:43:54;;;;;;;14.45;9.15;;;15.90;57.40;;;;;;4970219;28;20050;-65
2023/12/24 02:46:19;;;;;;;13.77;8.73;;;15.90;57.40;;;;;;4967605;28;20027;-64
2023/12/24 02:48:45;;;;;;;15.77;8.82;;;15.90;57.40;;;;;;4969987;28;21365;-64
2023/12/24 02:51:10;;;;;;;13.75;8.43;;;15.90;57.40;;;;;;4966901;28;20034;-64
2023/12/24 02:53:36;;;;;;;14.68;8.70;;;15.90;57.40;;;;;;4966947;28;20081;-64
2023/12/24 02:56:01;;;;;;;12.52;7.75;;;15.90;57.30;;;;;;4967051;28;20760;-65
2023/12/24 02:58:28;;;;;;;11.95;7.80;;;15.90;57.40;;;;;;4966691;28;20047;-62
2023/12/24 03:00:53;;;;;;;14.80;8.65;;;15.90;57.40;;;;;;4968037;28;20058;-64
2023/12/24 03:03:19;;;;;;;13.35;8.27;;;15.90;57.40;;;;;;4965395;28;20069;-65
2023/12/24 03:05:44;;;;;;;13.38;7.38;;;15.90;57.40;;;;;;4966528;28;20071;-66
2023/12/24 03:08:09;;;;;;;13.25;7.90;;;15.90;57.40;;;;;;4969306;28;20031;-64
2023/12/24 03:10:35;;;;;;;12.13;8.25;;;15.90;57.30;;;;;;4967726;28;20505;-64
2023/12/24 03:13:01;;;;;;;11.35;7.20;;;15.90;57.30;;;;;;4968660;28;20105;-65
2023/12/24 03:15:26;;;;;;;13.00;7.43;;;15.90;57.40;;;;;;4986428;28;20039;-64
2023/12/24 03:17:52;;;;;;;12.70;6.82;;;15.90;57.40;;;;;;4977632;28;20031;-63
2023/12/24 03:20:17;;;;;;;11.68;7.15;;;15.90;57.30;;;;;;4970214;28;20038;-63
2023/12/24 03:22:43;;;;;;;9.70;6.07;;;15.90;57.30;;;;;;4969960;28;20117;-65
2023/12/24 03:25:08;;;;;;;10.30;6.50;;;15.90;57.30;;;;;;4970673;28;20043;-64
2023/12/24 03:27:34;;;;;;;9.27;6.80;;;15.90;57.40;;;;;;4969996;28;20039;-64
2023/12/24 03:29:59;;;;;;;8.95;6.22;;;15.90;57.20;;;;;;4969892;28;20038;-66
2023/12/24 03:32:24;;;;;;;11.50;6.60;;;15.80;57.30;;;;;;4968234;28;20409;-65
2023/12/24 03:34:50;;;;;;;10.75;6.28;;;15.90;57.40;;;;;;4979746;28;20038;-62
2023/12/24 03:37:15;;;;;;;11.40;6.43;;;15.90;57.40;;;;;;4972744;28;20422;-63
2023/12/24 03:39:41;;;;;;;8.23;5.22;;;15.80;57.30;;;;;;4974627;28;20037;-65
2023/12/24 03:42:06;;;;;;;8.65;5.30;;;15.80;57.30;;;;;;4966825;28;20042;-63
2023/12/24 03:44:32;;;;;;;9.50;6.00;;;15.90;57.40;;;;;;4966802;28;20031;-63
2023/12/24 03:46:58;;;;;;;8.63;5.45;;;15.90;57.50;;;;;;4972950;28;20037;-64
2023/12/24 03:49:23;;;;;;;9.35;5.45;;;15.80;57.40;;;;;;4969546;28;20084;-65
2023/12/24 03:51:49;;;;;;;10.55;4.88;;;15.80;57.50;;;;;;4964840;28;20023;-64
2023/12/24 03:54:14;;;;;;;8.50;4.70;;;15.80;57.50;;;;;;4972603;28;20023;-64
2023/12/24 03:56:41;;;;;;;7.65;4.82;;;15.80;57.50;;;;;;4972844;28;20478;-65
2023/12/24 03:59:06;;;;;;;7.82;4.35;;;15.80;57.50;;;;;;4969162;28;20038;-64
2023/12/24 04:01:32;;;;;;;7.05;4.75;;;15.80;57.40;;;;;;4964287;28;20039;-65
2023/12/24 04:03:57;;;;;;;7.32;4.60;;;15.90;57.50;;;;;;4970131;28;20533;-63
2023/12/24 04:06:23;;;;;;;7.07;4.25;;;15.80;57.90;;;;;;4969284;28;20035;-63
2023/12/24 04:08:48;;;;;;;7.30;3.78;;;15.90;58.20;;;;;;4973935;28;20029;-65
2023/12/24 04:11:17;;;;;;;6.25;3.70;;;15.90;58.20;;;;;;4965831;28;20035;-65
2023/12/24 04:13:43;;;;;;;5.55;3.45;;;15.90;58.20;;;;;;4967735;28;20030;-65
2023/12/24 04:16:08;;;;;;;7.85;4.07;;;15.90;58.30;;;;;;4973983;28;20089;-67
2023/12/24 04:18:34;;;;;;;8.10;3.85;;;15.90;58.30;;;;;;4968544;28;20031;-64
2023/12/24 04:21:00;;;;;;;6.63;3.78;;;15.90;58.30;;;;;;4968138;28;20066;-65
2023/12/24 04:23:26;;;;;;;6.72;3.30;;;15.90;58.20;;;;;;4971189;28;20038;-65
2023/12/24 04:25:51;;;;;;;5.50;2.88;;;15.90;57.90;;;;;;4976006;28;20505;-63
2023/12/24 04:28:17;;;;;;;5.30;3.03;;;15.80;57.80;;;;;;4971935;28;20031;-64
2023/12/24 04:30:42;;;;;;;5.22;2.90;;;15.80;57.90;;;;;;4972313;28;20374;-64
2023/12/24 04:33:08;;;;;;;6.35;3.08;;;15.80;57.90;;;;;;4972007;28;20516;-64
2023/12/24 04:35:33;;;;;;;6.65;3.10;;;15.80;57.90;;;;;;4971792;28;20343;-65
2023/12/24 04:37:59;;;;;;;4.95;2.40;;;15.80;57.80;;;;;;4968771;28;20038;-65
2023/12/24 04:40:25;;;;;;;5.43;2.83;;;15.80;58.10;;;;;;4969198;28;20509;-64
2023/12/24 04:42:50;;;;;;;3.47;2.35;;;15.80;58.10;;;;;;4965596;28;20162;-64
2023/12/24 04:45:16;;;;;;;4.30;2.75;;;15.80;57.90;;;;;;4968943;28;20031;-60
2023/12/24 04:47:41;;;;;;;3.60;2.22;;;15.80;57.90;;;;;;4969977;28;20031;-64
2023/12/24 04:50:07;;;;;;;2.97;1.92;;;15.80;57.90;;;;;;4970676;28;20042;-64
2023/12/24 04:52:35;;;;;;;3.33;2.10;;;15.80;58.00;;;;;;4966778;28;20387;-64
2023/12/24 04:55:05;;;;;;;3.85;2.25;;;15.80;58.00;;;;;;4973443;28;20117;-63
2023/12/24 04:57:33;;;;;;;3.58;2.28;;;15.80;58.00;;;;;;4963788;28;20082;-62
2023/12/24 04:59:59;;;;;;;4.57;2.22;;;15.80;57.90;;;;;;4967652;28;20062;-64
2023/12/24 05:02:24;;;;;;;3.97;1.75;;;15.80;57.90;;;;;;4968061;28;20199;-65
2023/12/24 05:04:50;;;;;;;3.05;1.98;;;15.80;58.00;;;;;;4972964;28;20026;-61
2023/12/24 05:07:16;;;;;;;4.18;1.90;;;15.80;58.10;;;;;;4967628;28;20474;-63
2023/12/24 05:09:41;;;;;;;6.28;2.10;;;15.80;58.20;;;;;;4966034;28;20504;-65
2023/12/24 05:12:07;;;;;;;3.00;1.70;;;15.80;58.30;;;;;;4970600;28;20085;-62
2023/12/24 05:14:34;;;;;;;2.95;1.75;;;15.80;58.30;;;;;;4963850;28;20046;-64
2023/12/24 05:16:59;;;;;;;2.97;1.55;;;15.80;58.40;;;;;;4973347;28;20041;-65
2023/12/24 05:19:25;;;;;;;4.13;1.60;;;15.80;58.30;;;;;;4967191;28;20098;-63
2023/12/24 05:21:50;;;;;;;2.22;1.45;;;15.90;58.40;;;;;;4956976;28;20031;-64
2023/12/24 05:24:16;;;;;;;2.97;1.30;;;15.90;58.30;;;;;;4947413;28;20027;-64
2023/12/24 05:26:41;;;;;;;2.83;1.52;;;15.90;58.30;;;;;;4951160;28;20391;-65
2023/12/24 05:29:07;;;;;;;2.67;1.30;;;15.90;58.20;;;;;;4949327;28;20524;-62
2023/12/24 05:31:38;;;;;;;2.13;1.02;;;15.90;58.40;;;;;;4950935;28;20031;-63
2023/12/24 05:34:03;;;;;;;2.00;1.27;;;15.90;58.30;;;;;;4947697;28;20038;-62
2023/12/24 05:36:28;;;;;;;1.95;1.05;;;15.90;58.30;;;;;;4944414;28;20047;-64
2023/12/24 05:38:54;;;;;;;1.88;1.10;;;15.90;58.30;;;;;;4947820;28;20035;-64
2023/12/24 05:41:19;;;;;;;3.33;1.38;;;15.90;58.30;;;;;;4944837;28;20302;-64
2023/12/24 05:43:45;;;;;;;2.03;0.90;;;15.90;58.30;;;;;;4949327;28;20035;-62
2023/12/24 05:46:14;;;;;;;1.65;0.95;;;15.90;58.30;;;;;;4945675;28;20118;-62
2023/12/24 05:48:40;;;;;;;1.48;0.90;;;15.90;58.20;;;;;;4941795;28;20336;-64
2023/12/24 05:51:05;;;;;;;1.42;0.80;;;15.90;58.30;;;;;;4946441;28;20035;-65
2023/12/24 05:53:31;;;;;;;1.67;1.20;;;15.90;58.30;;;;;;4947885;28;20517;-63
2023/12/24 05:55:56;;;;;;;2.55;0.70;;;15.90;58.20;;;;;;4974914;28;20345;-64
2023/12/24 05:58:22;;;;;;;0.90;0.55;;;15.90;58.20;;;;;;4969154;28;20031;-63
2023/12/24 06:00:47;;;;;;;1.27;0.90;;;15.90;58.20;;;;;;4971149;28;20027;-65
2023/12/24 06:03:13;;;;;;;1.55;0.73;;;15.90;58.20;;;;;;4967652;28;20035;-63
2023/12/24 06:05:39;;;;;;;1.70;1.00;;;15.90;58.20;;;;;;4966465;28;20026;-64
2023/12/24 06:08:05;;;;;;;1.88;0.90;;;15.90;58.10;;;;;;4966874;28;20198;-65
2023/12/24 06:10:30;;;;;;;1.13;0.77;;;15.90;58.20;;;;;;4966489;28;20089;-64
2023/12/24 06:12:56;;;;;;;0.80;0.50;;;15.90;58.10;;;;;;4966493;28;20034;-62
2023/12/24 06:15:21;;;;;;;0.30;0.20;;;15.90;58.10;;;;;;4978539;28;20510;-64
2023/12/24 06:17:47;;;;;;;0.80;0.40;;;15.90;58.10;;;;;;4971488;28;20030;-64
2023/12/24 06:20:12;;;;;;;0.57;0.43;;;15.90;58.00;;;;;;4968368;28;20126;-65
2023/12/24 06:22:38;;;;;;;1.05;0.60;;;15.90;58.10;;;;;;4970582;28;20027;-64
2023/12/24 06:25:04;;;;;;;0.70;0.40;;;15.90;58.10;;;;;;4971402;28;20054;-64
2023/12/24 06:27:30;;;;;;;1.25;0.60;;;15.90;58.60;;;;;;4974624;28;20106;-65
2023/12/24 06:29:55;;;;;;;0.55;0.50;;;15.90;58.00;;;;;;4972337;28;20543;-63
2023/12/24 06:32:21;;;;;;;0.77;0.40;;;15.90;58.00;;;;;;4967720;28;20019;-65
2023/12/24 06:34:46;;;;;;;0.85;0.20;;;15.90;58.10;;;;;;4965693;28;20049;-63
2023/12/24 06:37:12;;;;;;;0.68;0.40;;;15.90;58.00;;;;;;4969827;28;20034;-64
2023/12/24 06:39:38;;;;;;;1.02;0.25;;;15.90;58.00;;;;;;4969872;28;20031;-64
2023/12/24 06:42:03;;;;;;;0.63;0.60;;;15.90;58.00;;;;;;4968784;28;20037;-64
2023/12/24 06:44:29;;;;;;;0.47;0.47;;;15.90;58.00;;;;;;4972155;28;20472;-65
2023/12/24 06:46:54;;;;;;;0.50;0.30;;;15.90;57.90;;;;;;4969445;28;20039;-64
2023/12/24 06:49:20;;;;;;;0.65;0.40;;;15.90;58.00;;;;;;4969784;28;20027;-64
2023/12/24 06:51:45;;;;;;;1.00;0.40;;;15.90;58.00;;;;;;4968085;28;20510;-64
2023/12/24 06:54:11;;;;;;;0.80;0.30;;;15.90;57.90;;;;;;4966620;28;20054;-66
2023/12/24 06:56:36;;;;;;;1.55;0.20;;;15.90;58.10;;;;;;4963343;28;20031;-66
2023/12/24 06:59:02;;;;;;;1.27;0.40;;;15.90;58.00;;;;;;4965442;28;20027;-63
2023/12/24 07:01:28;;;;;;;1.65;0.20;;;15.90;58.00;;;;;;4962065;28;20035;-65
2023/12/24 07:03:53;;;;;;;2.78;0.45;;;15.90;58.10;;;;;;4962143;28;20474;-64
2023/12/24 07:06:19;;;;;;;1.13;0.40;;;15.90;58.20;;;;;;4962782;28;20035;-65
2023/12/24 07:08:44;;;;;;;3.40;0.75;;;15.90;58.10;;;;;;4961529;28;20045;-64
2023/12/24 07:11:10;;;;;;;0.28;0.20;;;15.90;58.30;;;;;;4962790;28;20413;-66
2023/12/24 07:13:35;;;;;;;2.28;0.30;;;15.90;58.20;;;;;;4962077;28;20031;-64
2023/12/24 07:16:01;;;;;;;0.32;0.20;;;15.90;58.40;;;;;;4962762;28;20042;-64
2023/12/24 07:18:26;;;;;;;0.30;0.20;;;15.90;58.30;;;;;;4962202;28;20039;-62
2023/12/24 07:20:52;;;;;;;0.95;0.22;;;15.90;58.20;;;;;;4962523;28;20051;-64
2023/12/24 07:23:17;;;;;;;0.40;0.30;;;15.90;58.20;;;;;;4959973;28;20023;-63
2023/12/24 07:25:43;;;;;;;1.75;0.38;;;15.90;58.00;;;;;;4965023;28;20034;-64
2023/12/24 07:28:08;;;;;;;1.17;0.43;;;15.80;58.00;;;;;;4966427;28;20056;-64
2023/12/24 07:30:34;;;;;;;1.48;0.50;;;15.80;58.00;;;;;;4966851;28;20037;-63
2023/12/24 07:32:59;;;;;;;1.05;0.60;;;15.80;57.90;;;;;;4966312;28;20614;-64
2023/12/24 07:35:25;;;;;;;0.60;0.50;;;15.80;58.00;;;;;;4969518;28;20034;-65
2023/12/24 07:37:50;;;;;;;1.65;0.40;;;15.80;58.00;;;;;;4960676;28;20039;-63
2023/12/24 07:40:16;;;;;;;2.33;0.50;;;15.80;57.90;;;;;;4966018;28;20457;-64
2023/12/24 07:42:41;;;;;;;0.70;0.40;;;15.80;57.90;;;;;;4965252;28;20031;-61
2023/12/24 07:45:07;;;;;;;1.95;0.57;;;15.80;57.90;;;;;;4966013;28;20421;-62
2023/12/24 07:47:33;;;;;;;2.30;0.52;;;15.80;58.10;;;;;;4965808;28;20154;-63
2023/12/24 07:49:59;;;;;;;1.17;0.63;;;15.80;58.00;;;;;;4965929;28;20134;-62
2023/12/24 07:52:25;;;;;;;1.63;0.43;;;15.80;57.90;;;;;;4969990;28;20027;-62
2023/12/24 07:54:51;;;;;;;1.10;0.50;;;15.80;57.90;;;;;;4969072;28;20035;-63
2023/12/24 07:57:16;;;;;;;1.23;0.65;;;15.80;57.90;;;;;;4969374;28;20038;-64
2023/12/24 07:59:42;;;;;;;0.50;0.50;;;15.80;57.90;;;;;;4969201;28;20088;-63
2023/12/24 08:02:08;;;;;;;4.28;0.50;;;15.80;58.00;;;;;;4969825;28;20031;-63
2023/12/24 08:04:34;;;;;;;3.90;0.60;;;15.80;58.20;;;;;;4970776;28;20074;-63
2023/12/24 08:06:59;;;;;;;1.38;1.05;;;15.80;58.60;;;;;;4968932;28;20062;-64
2023/12/24 08:09:26;;;;;;;2.08;0.73;;;15.90;58.50;;;;;;4970644;28;20033;-65
2023/12/24 08:11:52;;;;;;;2.83;0.80;;;15.90;58.40;;;;;;4966458;28;20027;-63
2023/12/24 08:14:17;;;;;;;2.03;0.80;;;15.80;58.40;;;;;;4968760;28;20061;-64
2023/12/24 08:16:42;;;;;;;0.98;0.65;;;15.80;58.50;;;;;;4969463;28;20026;-63
2023/12/24 08:19:08;;;;;;;1.85;0.80;;;15.80;58.60;;;;;;4969449;28;20038;-58
2023/12/24 08:21:33;;;;;;;1.20;0.60;;;15.90;58.80;;;;;;4968844;28;20031;-59
2023/12/24 08:23:59;;;;;;;2.65;0.60;;;15.90;58.70;;;;;;4968742;28;20026;-58
2023/12/24 08:26:26;;;;;;;2.45;0.80;;;15.90;58.50;;;;;;4969431;28;20066;-59
2023/12/24 08:28:51;;;;;;;1.08;0.80;;;15.90;59.10;;;;;;4968655;28;20054;-64
2023/12/24 08:31:17;;;;;;;1.67;0.90;;;15.80;58.40;;;;;;4967803;28;20050;-65
2023/12/24 08:33:43;;;;;;;1.42;0.77;;;15.90;58.70;;;;;;4967657;28;20089;-62
2023/12/24 08:36:10;;;;;;;2.28;0.88;;;15.90;58.70;;;;;;4969327;28;20042;-63
2023/12/24 08:38:35;;;;;;;4.82;0.73;;;15.90;58.50;;;;;;4968759;28;20039;-64
2023/12/24 08:41:01;;;;;;;6.50;1.45;;;15.90;58.40;;;;;;4968207;28;20405;-64
2023/12/24 08:43:27;;;;;;;5.93;1.40;;;15.90;58.30;;;;;;4969297;28;20034;-64
2023/12/24 08:45:52;;;;;;;8.40;1.23;;;15.90;58.30;;;;;;4969436;28;20034;-63
2023/12/24 08:48:18;;;;;;;6.25;1.08;;;15.90;58.70;;;;;;4968024;28;20035;-63
2023/12/24 08:50:44;;;;;;;4.90;0.80;;;15.90;58.70;;;;;;4969125;28;20034;-63
2023/12/24 08:53:09;;;;;;;8.52;1.35;;;15.90;58.50;;;;;;4966803;28;20041;-63
2023/12/24 08:55:35;;;;;;;5.78;1.30;;;15.90;58.50;;;;;;4968875;28;20085;-64
2023/12/24 08:58:00;;;;;;;11.02;1.48;;;15.90;58.60;;;;;;4967159;28;20069;-58
2023/12/24 09:00:26;;;;;;;3.70;0.95;;;15.90;58.50;;;;;;4968783;28;20030;-59
2023/12/24 09:02:51;;;;;;;3.97;0.90;;;15.90;58.60;;;;;;4964794;28;20035;-62
2023/12/24 09:05:20;;;;;;;8.00;1.02;;;15.90;58.50;;;;;;4968155;28;20470;-58
2023/12/24 09:07:46;;;;;;;3.72;0.80;;;15.90;58.50;;;;;;4968938;28;20414;-61
2023/12/24 09:10:12;;;;;;;6.55;1.40;;;15.90;58.50;;;;;;4968354;28;20035;-66
2023/12/24 09:12:38;;;;;;;4.60;0.90;;;15.90;58.60;;;;;;4963082;28;20495;-66
2023/12/24 09:15:04;;;;;;;2.75;1.00;;;15.90;58.80;;;;;;4967628;28;20051;-65
2023/12/24 09:17:29;;;;;;;3.80;1.00;;;15.90;58.90;;;;;;4968987;28;20055;-66
2023/12/24 09:19:55;;;;;;;3.13;1.20;;;15.90;59.10;;;;;;4968585;28;20057;-66
2023/12/24 09:22:20;;;;;;;3.03;1.05;;;15.90;59.10;;;;;;4969004;28;20039;-66
2023/12/24 09:24:46;;;;;;;7.20;0.93;;;15.90;59.00;;;;;;4967374;28;20441;-65
2023/12/24 09:27:12;;;;;;;3.63;1.08;;;15.90;59.20;;;;;;4967852;28;20035;-61
2023/12/24 09:29:37;;;;;;;1.92;0.80;;;15.90;59.10;;;;;;4966880;28;20102;-63
2023/12/24 09:32:03;;;;;;;2.17;0.80;;;15.90;59.10;;;;;;4966916;28;20490;-58
2023/12/24 09:34:29;;;;;;;5.00;0.55;;;15.90;59.00;;;;;;4967691;28;20307;-55
2023/12/24 09:36:54;;;;;;;8.07;1.27;;;15.90;58.90;;;;;;4968412;28;20393;-58
2023/12/24 09:39:20;;;;;;;4.55;0.70;;;15.90;59.50;;;;;;4967732;28;20062;-58
2023/12/24 09:41:45;;;;;;;2.80;0.82;;;15.90;59.00;;;;;;4967863;28;20481;-64
2023/12/24 09:44:10;;;;;;;5.40;0.95;;;15.90;58.80;;;;;;4967136;28;20082;-64
2023/12/24 09:46:36;;;;;;;3.50;2.10;;;15.90;59.10;;;;;;4981729;28;20114;-66
2023/12/24 09:49:02;;;;;;;9.88;4.35;;;15.90;59.00;;;;;;4965465;28;20062;-65
2023/12/24 09:51:28;;;;;;;9.38;5.43;;;15.90;59.00;;;;;;4969618;28;20083;-64
2023/12/24 09:53:54;;;;;;;12.68;6.72;;;15.90;59.00;;;;;;4969213;28;20565;-63
2023/12/24 09:56:21;;;;;;;15.55;7.45;;;15.90;58.90;;;;;;4962644;28;20114;-61
2023/12/24 09:58:47;;;;;;;16.67;6.50;;;15.90;59.00;;;;;;4967617;28;20038;-60
2023/12/24 10:01:13;;;;;;;16.17;6.65;;;15.90;59.00;;;;;;4966527;28;20035;-63
2023/12/24 10:03:38;;;;;;;17.73;7.30;;;15.90;59.00;;;;;;4967892;28;20080;-62
2023/12/24 10:06:08;;;;;;;14.15;7.13;;;15.90;59.10;;;;;;4967522;28;20030;-62
2023/12/24 10:08:34;;;;;;;17.58;7.65;;;15.90;59.10;;;;;;4967383;28;20125;-63
2023/12/24 10:11:15;;;;;;;17.70;7.35;;;15.90;59.00;;;;;;4967574;28;20054;-64
2023/12/24 10:13:41;;;;;;;18.15;7.78;;;15.90;59.10;;;;;;4965855;28;20050;-63
2023/12/24 10:16:09;;;;;;;18.52;7.22;;;15.90;59.10;;;;;;4966452;28;20109;-62
2023/12/24 10:18:34;;;;;;;21.90;8.10;;;15.90;59.10;;;;;;4982045;28;20841;-63
2023/12/24 10:21:08;;;;;;;14.30;7.63;;;15.90;59.10;;;;;;4960400;28;20113;-61
2023/12/24 10:23:33;;;;;;;21.50;8.63;;;15.90;59.10;;;;;;4976260;28;20034;-56
2023/12/24 10:26:03;;;;;;;19.17;9.23;;;15.90;59.30;;;;;;4960178;28;20037;-63
2023/12/24 10:28:29;;;;;;;17.63;8.82;;;15.90;59.30;;;;;;4979059;28;20090;-64
2023/12/24 10:31:09;;;;;;;22.83;11.20;;;15.90;59.30;;;;;;4967748;28;20057;-62
2023/12/24 10:33:36;;;;;;;24.77;11.95;;;15.90;59.50;;;;;;4966633;28;20118;-62
2023/12/24 10:36:03;;;;;;;23.50;10.73;;;15.90;59.40;;;;;;4966408;28;20067;-61
2023/12/24 10:38:28;;;;;;;25.60;10.80;;;15.90;58.90;;;;;;4968984;28;20096;-62
2023/12/24 10:40:54;;;;;;;26.38;11.63;;;15.90;59.10;;;;;;4966270;28;20698;-63
2023/12/24 10:43:19;;;;;;;23.92;10.40;;;15.90;59.10;;;;;;4966402;28;20031;-62
2023/12/24 10:45:45;;;;;;;21.80;10.93;;;15.90;58.90;;;;;;4968118;28;20037;-61
2023/12/24 10:48:11;;;;;;;26.77;10.20;;;15.90;59.20;;;;;;4965876;28;20294;-61
2023/12/24 10:50:37;;;;;;;26.00;10.48;;;15.90;59.50;;;;;;4968220;28;20085;-61
2023/12/24 10:53:02;;;;;;;30.40;11.13;;;15.90;59.80;;;;;;4968897;28;20039;-61
2023/12/24 10:55:30;;;;;;;25.17;11.07;;;15.90;59.60;;;;;;4966191;28;20034;-63
2023/12/24 10:58:17;;;;;;;28.38;11.20;;;15.90;59.70;;;;;;4969409;28;20031;-64
2023/12/24 11:00:42;;;;;;;24.20;10.77;;;15.90;60.30;;;;;;4966453;28;20027;-63
2023/12/24 11:03:09;;;;;;;22.73;10.52;;;15.90;60.80;;;;;;4967552;28;20034;-62
2023/12/24 11:05:42;;;;;;;23.25;9.82;;;15.90;60.80;;;;;;4967043;28;20053;-63
2023/12/24 11:08:28;;;;;;;24.85;9.35;;;16.00;60.50;;;;;;4971048;28;20037;-62
2023/12/24 11:10:58;;;;;;;23.17;9.70;;;16.00;59.90;;;;;;4970879;28;20513;-61
2023/12/24 11:13:33;;;;;;;19.88;8.82;;;15.90;59.70;;;;;;4954541;28;20062;-64
2023/12/24 11:16:00;;;;;;;24.52;10.45;;;15.90;59.70;;;;;;4967759;28;20051;-63
2023/12/24 11:18:56;;;;;;;17.88;8.75;;;15.90;59.40;;;;;;4967643;28;20026;-63
2023/12/24 11:21:21;;;;;;;;;;;15.90;59.30;;;;;;4963869;28;20548;-63
2023/12/24 11:24:20;;;;;;;17.45;7.70;;;15.90;59.60;;;;;;4969633;28;19909;-63
2023/12/24 11:26:53;;;;;;;18.42;7.80;;;15.90;59.60;;;;;;4970851;28;20125;-61
2023/12/24 11:29:41;;;;;;;16.63;7.68;;;15.90;59.50;;;;;;4970085;28;20515;-58
2023/12/24 11:32:24;;;;;;;16.45;7.43;;;15.90;59.30;;;;;;4971195;28;20036;-63
2023/12/24 11:34:51;;;;;;;15.60;7.30;;;15.90;59.30;;;;;;4971034;28;20092;-61
2023/12/24 11:37:26;;;;;;;15.77;7.28;;;15.90;59.20;;;;;;4968257;28;20113;-57
2023/12/24 11:40:02;;;;;;;12.23;3.40;;;15.90;59.20;;;;;;4971159;28;20031;-66
2023/12/24 11:42:46;;;;;;;10.55;3.33;;;16.40;61.80;;;;;;4965812;28;20513;-61
2023/12/24 11:45:29;;;;;;;10.35;3.50;;;17.00;59.40;;;;;;4968220;28;20035;-61
2023/12/24 11:47:55;;;;;;;17.02;3.88;;;17.50;57.30;;;;;;4963318;28;20050;-61
2023/12/24 11:50:21;;;;;;;7.20;3.08;;;18.00;56.10;;;;;;4969356;28;20038;-59
2023/12/24 11:52:48;;;;;;;8.38;3.22;;;18.50;54.70;;;;;;4968994;28;20027;-63
2023/12/24 11:55:18;;;;;;;10.90;4.13;;;18.80;53.80;;;;;;4969066;28;20089;-61
2023/12/24 11:57:44;;;;;;;7.78;4.25;;;19.10;53.10;;;;;;4968800;28;20031;-58
2023/12/24 12:00:23;;;;;;;8.25;3.95;;;19.50;52.30;;;;;;4970968;28;20560;-63
2023/12/24 12:03:03;;;;;;;6.53;3.28;;;19.70;51.80;;;;;;4974081;28;20122;-59
2023/12/24 12:05:29;;;;;;;7.60;3.38;;;19.90;51.50;;;;;;4962896;28;20035;-64
2023/12/24 12:07:55;;;;;;;9.35;3.88;;;20.00;51.20;;;;;;4970996;28;20105;-59
2023/12/24 12:10:21;;;;;;;10.20;4.45;;;20.10;51.10;;;;;;4970948;28;20118;-63
2023/12/24 12:12:46;;;;;;;9.40;4.65;;;20.10;51.00;;;;;;4970439;28;20057;-65
2023/12/24 12:15:14;;;;;;;8.05;4.03;;;20.30;50.80;;;;;;4968712;28;20582;-62
2023/12/24 12:17:40;;;;;;;7.28;4.32;;;20.30;50.70;;;;;;4970728;28;20030;-64
2023/12/24 12:20:06;;;;;;;8.93;4.10;;;20.40;50.50;;;;;;4970420;28;20031;-62
2023/12/24 12:22:31;;;;;;;8.45;4.20;;;20.60;50.40;;;;;;4971188;28;20109;-61
2023/12/24 12:24:57;;;;;;;10.90;4.32;;;20.60;50.20;;;;;;4974208;28;20446;-62
2023/12/24 12:27:24;;;;;;;6.45;3.50;;;20.60;50.20;;;;;;4970460;28;20435;-57
2023/12/24 12:29:50;;;;;;;8.05;4.05;;;20.70;50.20;;;;;;4970610;28;20023;-58
2023/12/24 12:32:15;;;;;;;5.78;3.67;;;20.70;50.30;;;;;;4968598;28;20031;-63
2023/12/24 12:34:41;;;;;;;8.10;4.13;;;20.70;50.30;;;;;;4971063;28;20039;-59
2023/12/24 12:37:06;;;;;;;8.85;4.47;;;20.60;50.50;;;;;;4968236;28;20405;-63